createdAt,value
2018-07-23T00:00:24.820Z,87.90
2018-07-23T00:02:53.501Z,88.30
2018-07-23T00:05:21.665Z,88.80
2018-07-23T00:07:49.823Z,89.10
2018-07-23T00:10:18.057Z,89.60
2018-07-23T00:12:46.354Z,89.20
2018-07-23T00:15:15.485Z,89.20
2018-07-23T00:17:43.656Z,89.90
2018-07-23T00:20:11.860Z,89.50
2018-07-23T00:22:41.230Z,90.30
2018-07-23T00:25:09.493Z,90.10
2018-07-23T00:27:37.664Z,90.10
2018-07-23T00:30:06.679Z,90.10
2018-07-23T00:32:35.093Z,90.10
2018-07-23T00:35:04.229Z,89.50
2018-07-23T00:37:32.812Z,90.00
2018-07-23T00:40:01.273Z,89.80
2018-07-23T00:42:29.526Z,89.20
2018-07-23T00:44:57.693Z,89.00
2018-07-23T00:47:25.866Z,89.00
2018-07-23T00:49:54.070Z,89.00
2018-07-23T00:52:22.316Z,89.00
2018-07-23T00:54:50.769Z,89.00
2018-07-23T00:57:18.971Z,90.10
2018-07-23T00:59:53.890Z,90.00
2018-07-23T01:02:22.069Z,90.00
2018-07-23T01:04:51.377Z,90.30
2018-07-23T01:07:19.555Z,90.50
2018-07-23T01:09:47.832Z,90.50
2018-07-23T01:12:28.897Z,90.30
2018-07-23T01:14:57.129Z,90.00
2018-07-23T01:17:26.347Z,89.70
2018-07-23T01:19:56.440Z,89.60
2018-07-23T01:22:25.809Z,89.60
2018-07-23T01:24:55.870Z,90.10
2018-07-23T01:27:24.077Z,90.40
2018-07-23T01:29:52.246Z,90.20
2018-07-23T01:32:20.875Z,90.50
2018-07-23T01:34:49.334Z,90.40
2018-07-23T01:37:18.408Z,90.20
2018-07-23T01:39:46.607Z,90.50
2018-07-23T01:42:14.797Z,90.40
2018-07-23T01:44:42.978Z,90.10
2018-07-23T01:47:11.436Z,89.80
2018-07-23T01:49:40.078Z,89.20
2018-07-23T01:52:08.236Z,89.70
2018-07-23T01:54:36.453Z,89.90
2018-07-23T01:57:04.629Z,90.10
2018-07-23T01:59:32.792Z,90.00
2018-07-23T02:02:01.521Z,90.30
2018-07-23T02:04:30.137Z,90.60
2018-07-23T02:06:58.365Z,90.60
2018-07-23T02:09:26.828Z,90.50
2018-07-23T02:11:55.064Z,90.60
2018-07-23T02:14:23.258Z,90.40
2018-07-23T02:16:51.532Z,90.70
2018-07-23T02:19:20.138Z,91.00
2018-07-23T02:21:48.347Z,90.90
2018-07-23T02:24:16.580Z,90.90
2018-07-23T02:26:45.573Z,90.80
2018-07-23T02:29:14.283Z,91.00
2018-07-23T02:31:43.221Z,90.70
2018-07-23T02:34:11.389Z,91.00
2018-07-23T02:36:40.351Z,91.00
2018-07-23T02:39:10.771Z,91.20
2018-07-23T02:41:41.202Z,91.00
2018-07-23T02:44:09.377Z,91.00
2018-07-23T02:46:37.773Z,90.60
2018-07-23T02:49:06.015Z,90.90
2018-07-23T02:51:35.065Z,90.40
2018-07-23T02:54:03.999Z,90.30
2018-07-23T02:56:32.204Z,89.60
2018-07-23T02:59:00.436Z,88.80
2018-07-23T03:01:28.656Z,88.80
2018-07-23T03:03:57.241Z,89.40
2018-07-23T03:06:28.418Z,88.80
2018-07-23T03:08:57.690Z,89.60
2018-07-23T03:11:26.698Z,89.50
2018-07-23T03:13:55.312Z,89.40
2018-07-23T03:16:23.690Z,89.30
2018-07-23T03:18:51.991Z,90.00
2018-07-23T03:21:21.168Z,90.30
2018-07-23T03:23:49.371Z,90.20
2018-07-23T03:26:17.592Z,90.10
2018-07-23T03:28:47.269Z,90.20
2018-07-23T03:31:15.450Z,90.20
2018-07-23T03:33:43.632Z,90.30
2018-07-23T03:36:12.184Z,90.10
2018-07-23T03:38:40.354Z,90.10
2018-07-23T03:41:09.113Z,90.20
2018-07-23T03:43:37.567Z,90.10
2018-07-23T03:46:06.084Z,89.50
2018-07-23T03:48:35.187Z,89.50
2018-07-23T03:51:03.388Z,88.80
2018-07-23T03:53:31.590Z,88.80
2018-07-23T03:55:59.786Z,87.80
2018-07-23T03:58:28.008Z,87.80
2018-07-23T04:00:56.208Z,87.20
2018-07-23T04:03:25.082Z,87.60
2018-07-23T04:05:53.318Z,87.50
2018-07-23T04:08:21.602Z,87.60
2018-07-23T04:10:49.884Z,87.70
2018-07-23T04:13:18.450Z,88.40
2018-07-23T04:15:47.736Z,88.30
2018-07-23T04:18:16.229Z,88.30
2018-07-23T04:20:44.408Z,87.40
2018-07-23T04:23:12.922Z,87.30
2018-07-23T04:25:41.780Z,87.00
2018-07-23T04:28:09.996Z,87.50
2018-07-23T04:30:38.207Z,86.50
2018-07-23T04:33:06.996Z,87.50
2018-07-23T04:35:36.096Z,88.30
2018-07-23T04:38:04.333Z,88.20
2018-07-23T04:40:32.896Z,88.00
2018-07-23T04:43:02.668Z,86.70
2018-07-23T04:45:30.919Z,87.30
2018-07-23T04:50:35.669Z,87.00
2018-07-23T04:53:04.880Z,86.30
2018-07-23T04:55:33.173Z,85.60
2018-07-23T04:58:01.603Z,86.10
2018-07-23T05:00:30.081Z,85.50
2018-07-23T05:02:58.643Z,85.10
2018-07-23T05:05:29.013Z,85.00
2018-07-23T05:07:57.267Z,84.90
2018-07-23T05:10:25.649Z,83.50
2018-07-23T05:12:53.896Z,84.20
2018-07-23T05:15:22.121Z,83.50
2018-07-23T05:17:50.984Z,83.20
2018-07-23T05:20:19.221Z,83.00
2018-07-23T05:22:47.744Z,82.30
2018-07-23T05:25:16.226Z,82.80
2018-07-23T05:27:44.521Z,82.80
2018-07-23T05:30:12.692Z,82.80
2018-07-23T05:35:10.112Z,82.60
2018-07-23T05:40:07.385Z,81.20
2018-07-23T05:42:36.202Z,81.30
2018-07-23T05:45:06.129Z,81.30
2018-07-23T05:47:34.574Z,81.40
2018-07-23T05:50:04.525Z,81.20
2018-07-23T05:52:33.076Z,79.90
2018-07-23T05:55:01.464Z,79.20
2018-07-23T05:57:29.762Z,79.90
2018-07-23T05:59:58.049Z,78.80
2018-07-23T06:02:27.772Z,79.00
2018-07-23T06:07:24.198Z,79.00
2018-07-23T06:09:52.465Z,77.40
2018-07-23T06:12:20.897Z,76.80
2018-07-23T06:14:49.138Z,75.80
2018-07-23T06:17:17.348Z,76.40
2018-07-23T06:19:45.581Z,75.80
2018-07-23T06:22:14.087Z,75.70
2018-07-23T06:24:42.478Z,77.10
2018-07-23T06:27:10.943Z,76.30
2018-07-23T06:29:39.473Z,75.60
2018-07-23T06:32:08.331Z,73.90
2018-07-23T06:34:36.601Z,73.40
2018-07-23T06:37:04.838Z,74.50
2018-07-23T06:39:33.352Z,72.80
2018-07-23T06:42:02.032Z,72.40
2018-07-23T06:44:30.285Z,72.20
2018-07-23T06:46:58.914Z,71.50
2018-07-23T06:49:27.213Z,70.90
2018-07-23T06:51:55.585Z,71.80
2018-07-23T06:54:24.171Z,71.10
2018-07-23T06:56:52.425Z,69.80
2018-07-23T06:59:21.048Z,69.60
2018-07-23T07:01:49.233Z,70.10
2018-07-23T07:04:17.676Z,69.30
2018-07-23T07:06:46.071Z,69.50
2018-07-23T07:09:14.325Z,70.10
2018-07-23T07:11:42.746Z,70.10
2018-07-23T07:14:11.041Z,70.20
2018-07-23T07:16:39.605Z,69.40
2018-07-23T07:19:07.860Z,67.90
2018-07-23T07:21:36.321Z,67.80
2018-07-23T07:24:05.228Z,67.80
2018-07-23T07:26:33.808Z,67.00
2018-07-23T07:29:02.154Z,66.80
2018-07-23T07:31:30.935Z,66.10
2018-07-23T07:33:59.148Z,66.70
2018-07-23T07:36:27.561Z,66.60
2018-07-23T07:38:56.490Z,66.30
2018-07-23T07:41:25.005Z,66.40
2018-07-23T07:43:53.286Z,67.20
2018-07-23T07:46:21.879Z,67.00
2018-07-23T07:48:50.150Z,67.10
2018-07-23T07:51:18.402Z,66.90
2018-07-23T07:53:47.255Z,66.70
2018-07-23T07:56:15.470Z,66.30
2018-07-23T07:58:43.794Z,65.90
2018-07-23T08:01:12.513Z,66.00
2018-07-23T08:03:40.852Z,65.90
2018-07-23T08:06:09.587Z,65.80
2018-07-23T08:08:38.169Z,65.20
2018-07-23T08:11:06.840Z,64.20
2018-07-23T08:13:36.229Z,64.20
2018-07-23T08:16:04.739Z,63.80
2018-07-23T08:18:33.515Z,62.20
2018-07-23T08:21:02.849Z,61.20
2018-07-23T08:23:31.939Z,60.60
2018-07-23T08:26:00.539Z,59.10
2018-07-23T08:28:28.852Z,59.30
2018-07-23T08:30:57.107Z,59.20
2018-07-23T08:33:26.653Z,58.50
2018-07-23T08:35:54.864Z,56.30
2018-07-23T08:38:23.105Z,56.30
2018-07-23T08:40:51.537Z,56.40
2018-07-23T08:43:20.378Z,56.30
2018-07-23T08:45:49.566Z,55.30
2018-07-23T08:48:17.797Z,55.40
2018-07-23T08:50:46.688Z,55.60
2018-07-23T08:53:15.073Z,56.80
2018-07-23T08:55:43.324Z,55.00
2018-07-23T08:58:12.174Z,54.70
2018-07-23T09:00:41.052Z,54.70
2018-07-23T09:03:09.406Z,55.30
2018-07-23T09:05:38.114Z,55.90
2018-07-23T09:08:06.445Z,55.20
2018-07-23T09:10:34.618Z,54.00
2018-07-23T09:13:03.101Z,54.60
2018-07-23T09:15:31.792Z,55.90
2018-07-23T09:18:00.364Z,57.00
2018-07-23T09:22:57.038Z,54.90
2018-07-23T09:25:31.051Z,54.20
2018-07-23T09:27:59.289Z,53.80
2018-07-23T09:30:33.483Z,54.60
2018-07-23T09:33:01.686Z,54.00
2018-07-23T09:35:30.063Z,54.50
2018-07-23T09:37:58.306Z,54.00
2018-07-23T09:40:26.514Z,52.80
2018-07-23T09:42:54.753Z,51.70
2018-07-23T09:45:23.701Z,51.30
2018-07-23T09:47:51.903Z,51.20
2018-07-23T09:50:21.642Z,50.40
2018-07-23T09:52:49.875Z,49.90
2018-07-23T09:55:18.098Z,47.50
2018-07-23T09:57:46.700Z,45.80
2018-07-23T10:00:19.569Z,44.80
2018-07-23T10:02:47.742Z,43.20
2018-07-23T10:05:16.243Z,44.60
2018-07-23T10:07:44.926Z,45.50
2018-07-23T10:10:13.134Z,46.20
2018-07-23T10:12:41.617Z,45.30
2018-07-23T10:15:09.834Z,42.70
2018-07-23T10:17:38.181Z,42.10
2018-07-23T10:20:06.458Z,41.00
2018-07-23T10:22:34.970Z,42.00
2018-07-23T10:25:03.616Z,41.50
2018-07-23T10:27:32.174Z,42.20
2018-07-23T10:30:00.535Z,42.30
2018-07-23T10:32:29.160Z,42.00
2018-07-23T10:34:57.857Z,42.40
2018-07-23T10:37:26.259Z,42.50
2018-07-23T10:39:54.479Z,40.90
2018-07-23T10:42:23.448Z,38.60
2018-07-23T10:44:53.466Z,39.60
2018-07-23T10:47:22.617Z,37.00
2018-07-23T10:49:51.437Z,35.50
2018-07-23T10:54:47.814Z,35.90
2018-07-23T10:57:16.081Z,32.30
2018-07-23T10:59:44.712Z,34.10
2018-07-23T11:02:13.597Z,35.30
2018-07-23T11:04:42.166Z,35.60
2018-07-23T11:07:10.408Z,35.80
2018-07-23T11:09:39.203Z,35.40
2018-07-23T11:12:07.860Z,34.80
2018-07-23T11:14:36.169Z,34.50
2018-07-23T11:17:04.673Z,34.50
2018-07-23T11:19:32.901Z,34.70
2018-07-23T11:22:01.090Z,34.60
2018-07-23T11:24:29.426Z,35.00
2018-07-23T11:26:58.242Z,33.60
2018-07-23T11:29:27.103Z,34.70
2018-07-23T11:31:55.347Z,33.70
2018-07-23T11:34:23.880Z,33.70
2018-07-23T11:36:52.080Z,34.10
2018-07-23T11:39:20.301Z,32.90
2018-07-23T11:41:48.478Z,33.10
2018-07-23T11:44:16.767Z,33.90
2018-07-23T11:46:45.563Z,31.80
2018-07-23T11:49:13.756Z,31.40
2018-07-23T11:51:41.940Z,31.50
2018-07-23T11:54:10.861Z,30.70
2018-07-23T11:56:39.220Z,30.80
2018-07-23T11:59:07.781Z,31.00
2018-07-23T12:01:37.659Z,30.70
2018-07-23T12:04:10.406Z,30.50
2018-07-23T12:06:35.681Z,31.60
2018-07-23T12:09:07.381Z,31.70
2018-07-23T12:11:35.897Z,31.30
2018-07-23T12:14:06.132Z,32.80
2018-07-23T12:16:35.012Z,31.40
2018-07-23T12:19:07.084Z,31.50
2018-07-23T12:21:41.230Z,31.70
2018-07-23T12:24:10.873Z,28.90
2018-07-23T12:26:43.554Z,29.90
2018-07-23T12:29:19.140Z,30.70
2018-07-23T12:31:51.183Z,29.80
2018-07-23T12:34:30.907Z,29.40
2018-07-23T12:37:03.897Z,28.30
2018-07-23T12:39:37.106Z,29.30
2018-07-23T12:42:13.073Z,28.20
2018-07-23T12:44:42.393Z,28.60
2018-07-23T12:47:12.136Z,28.10
2018-07-23T12:49:41.860Z,28.10
2018-07-23T12:52:16.472Z,27.50
2018-07-23T12:54:54.980Z,28.00
2018-07-23T12:57:30.235Z,27.90
2018-07-23T13:00:04.328Z,26.80
2018-07-23T13:02:35.295Z,26.50
2018-07-23T13:05:11.332Z,25.70
2018-07-23T13:07:41.538Z,25.90
2018-07-23T13:10:10.084Z,26.50
2018-07-23T13:12:46.098Z,25.30
2018-07-23T13:15:21.217Z,25.00
2018-07-23T13:20:22.211Z,24.30
2018-07-23T13:22:51.204Z,24.30
2018-07-23T13:25:19.594Z,24.60
2018-07-23T13:27:47.898Z,24.30
2018-07-23T13:30:19.599Z,24.10
2018-07-23T13:32:52.814Z,23.00
2018-07-23T13:35:22.781Z,22.60
2018-07-23T13:38:01.038Z,23.00
2018-07-23T13:40:49.878Z,23.40
2018-07-23T13:43:27.104Z,24.40
2018-07-23T13:46:01.869Z,23.80
2018-07-23T13:48:30.311Z,22.80
2018-07-23T13:50:58.841Z,22.60
2018-07-23T13:53:28.575Z,21.50
2018-07-23T13:56:06.007Z,22.50
2018-07-23T13:58:40.940Z,21.00
2018-07-23T14:01:18.695Z,21.30
2018-07-23T14:03:56.908Z,21.00
2018-07-23T14:06:37.970Z,21.40
2018-07-23T14:09:22.652Z,22.10
2018-07-23T14:12:04.835Z,21.70
2018-07-23T14:14:41.062Z,23.50
2018-07-23T14:17:26.736Z,22.10
2018-07-23T14:20:19.539Z,23.60
2018-07-23T14:25:46.212Z,22.20
2018-07-23T14:28:36.824Z,20.30
2018-07-23T14:31:13.929Z,18.10
2018-07-23T14:33:59.293Z,17.50
2018-07-23T14:36:48.374Z,17.60
2018-07-23T14:39:30.342Z,16.60
2018-07-23T14:42:03.038Z,16.70
2018-07-23T14:44:34.783Z,16.50
2018-07-23T14:50:59.607Z,16.50
2018-07-23T14:53:31.060Z,16.40
2018-07-23T15:00:56.042Z,17.80
2018-07-23T15:03:24.274Z,18.20
2018-07-23T15:05:52.521Z,17.60
2018-07-23T15:08:21.796Z,18.40
2018-07-23T15:11:02.250Z,18.80
2018-07-23T15:13:36.162Z,17.70
2018-07-23T15:16:15.467Z,17.70
2018-07-23T15:18:43.865Z,18.50
2018-07-23T15:21:15.791Z,17.80
2018-07-23T15:23:45.898Z,17.70
2018-07-23T15:26:26.578Z,17.80
2018-07-23T15:29:01.204Z,18.20
2018-07-23T15:31:29.472Z,18.50
2018-07-23T15:33:57.661Z,18.10
2018-07-23T15:36:26.202Z,16.90
2018-07-23T15:38:55.371Z,16.80
2018-07-23T15:41:24.446Z,15.80
2018-07-23T15:43:53.548Z,15.20
2018-07-23T15:46:29.774Z,16.40
2018-07-23T15:49:08.272Z,17.10
2018-07-23T15:51:37.149Z,17.70
2018-07-23T15:54:05.840Z,18.20
2018-07-23T15:56:34.358Z,18.00
2018-07-23T15:59:02.766Z,17.70
2018-07-23T16:01:30.979Z,18.10
2018-07-23T16:03:59.562Z,18.60
2018-07-23T16:06:28.063Z,17.50
2018-07-23T16:08:56.421Z,17.80
2018-07-23T16:11:24.733Z,17.30
2018-07-23T16:13:53.147Z,18.90
2018-07-23T16:16:21.874Z,18.50
2018-07-23T16:18:51.457Z,19.30
2018-07-23T16:21:19.692Z,18.60
2018-07-23T16:23:48.574Z,18.50
2018-07-23T16:26:18.247Z,18.20
2018-07-23T16:28:46.474Z,18.60
2018-07-23T16:31:14.636Z,18.60
2018-07-23T16:33:43.188Z,18.80
2018-07-23T16:36:11.814Z,19.30
2018-07-23T16:38:40.460Z,19.80
2018-07-23T16:41:08.706Z,20.10
2018-07-23T16:43:37.256Z,20.40
2018-07-23T16:46:05.868Z,20.40
2018-07-23T16:48:36.985Z,20.90
2018-07-23T16:51:06.075Z,21.00
2018-07-23T16:53:36.399Z,20.30
2018-07-23T16:56:05.373Z,20.30
2018-07-23T17:01:05.051Z,21.50
2018-07-23T17:03:40.634Z,21.90
2018-07-23T17:06:09.322Z,22.70
2018-07-23T17:08:42.230Z,22.90
2018-07-23T17:11:11.251Z,22.20
2018-07-23T17:13:40.432Z,20.30
2018-07-23T17:16:08.705Z,20.30
2018-07-23T17:18:38.357Z,20.70
2018-07-23T17:23:35.672Z,22.30
2018-07-23T17:26:03.876Z,22.70
2018-07-23T17:28:32.083Z,23.90
2018-07-23T17:31:00.300Z,24.70
2018-07-23T17:33:28.770Z,24.70
2018-07-23T17:35:57.960Z,25.20
2018-07-23T17:38:26.572Z,25.40
2018-07-23T17:40:54.740Z,24.80
2018-07-23T17:43:23.342Z,25.70
2018-07-23T17:45:51.693Z,26.10
2018-07-23T17:48:20.353Z,26.40
2018-07-23T17:50:49.332Z,26.70
2018-07-23T17:55:45.897Z,26.70
2018-07-23T17:58:14.464Z,26.80
2018-07-23T18:00:42.945Z,26.80
2018-07-23T18:03:11.712Z,27.20
2018-07-23T18:05:40.992Z,27.30
2018-07-23T18:08:09.379Z,28.90
2018-07-23T18:10:37.599Z,29.60
2018-07-23T18:13:06.120Z,30.80
2018-07-23T18:15:34.616Z,30.50
2018-07-23T18:18:04.002Z,32.00
2018-07-23T18:20:33.125Z,31.70
2018-07-23T18:23:01.650Z,32.00
2018-07-23T18:25:31.444Z,32.30
2018-07-23T18:28:01.571Z,32.60
2018-07-23T18:30:31.021Z,33.10
2018-07-23T18:32:59.322Z,33.30
2018-07-23T18:35:27.555Z,33.70
2018-07-23T18:37:56.309Z,33.90
2018-07-23T18:40:25.363Z,34.50
2018-07-23T18:42:53.886Z,35.10
2018-07-23T18:45:22.151Z,35.80
2018-07-23T18:47:50.690Z,36.10
2018-07-23T18:50:19.444Z,36.60
2018-07-23T18:52:47.704Z,37.20
2018-07-23T18:55:16.196Z,36.90
2018-07-23T18:57:44.535Z,37.30
2018-07-23T19:00:12.968Z,37.80
2018-07-23T19:02:41.599Z,38.40
2018-07-23T19:05:09.854Z,38.60
2018-07-23T19:07:38.386Z,39.50
2018-07-23T19:10:08.737Z,39.70
2018-07-23T19:12:37.764Z,38.90
2018-07-23T19:15:06.768Z,39.90
2018-07-23T19:17:36.934Z,40.70
2018-07-23T19:20:05.521Z,40.70
2018-07-23T19:22:37.028Z,41.20
2018-07-23T19:25:07.525Z,40.90
2018-07-23T19:27:38.219Z,41.50
2018-07-23T19:30:08.683Z,41.40
2018-07-23T19:32:37.233Z,42.10
2018-07-23T19:35:07.848Z,42.60
2018-07-23T19:37:36.067Z,41.80
2018-07-23T19:40:04.328Z,41.50
2018-07-23T19:42:32.692Z,42.90
2018-07-23T19:45:01.481Z,42.00
2018-07-23T19:47:30.099Z,42.60
2018-07-23T19:49:58.280Z,42.70
2018-07-23T19:52:26.496Z,43.50
2018-07-23T19:54:54.700Z,44.00
2018-07-23T19:57:24.705Z,45.30
2018-07-23T19:59:53.074Z,44.90
2018-07-23T20:02:21.521Z,45.20
2018-07-23T20:04:49.694Z,45.40
2018-07-23T20:07:20.370Z,45.70
2018-07-23T20:09:48.564Z,46.80
2018-07-23T20:12:18.148Z,46.10
2018-07-23T20:14:46.486Z,46.40
2018-07-23T20:17:15.572Z,46.70
2018-07-23T20:19:48.685Z,46.70
2018-07-23T20:22:18.135Z,46.60
2018-07-23T20:27:15.706Z,47.40
2018-07-23T20:29:44.144Z,46.90
2018-07-23T20:32:12.793Z,48.00
2018-07-23T20:34:40.991Z,47.60
2018-07-23T20:37:09.510Z,47.20
2018-07-23T20:39:38.005Z,47.80
2018-07-23T20:42:06.284Z,47.60
2018-07-23T20:44:34.533Z,48.10
2018-07-23T20:47:03.829Z,48.60
2018-07-23T20:49:33.377Z,49.30
2018-07-23T20:52:02.615Z,49.40
2018-07-23T20:54:31.159Z,50.00
2018-07-23T20:57:01.847Z,50.00
2018-07-23T20:59:30.068Z,49.80
2018-07-23T21:01:58.541Z,49.90
2018-07-23T21:04:29.240Z,50.30
2018-07-23T21:09:25.688Z,51.00
2018-07-23T21:11:54.200Z,51.40
2018-07-23T21:14:22.748Z,51.60
2018-07-23T21:16:51.001Z,51.70
2018-07-23T21:19:19.163Z,52.10
2018-07-23T21:21:48.115Z,52.80
2018-07-23T21:24:16.284Z,53.70
2018-07-23T21:26:44.541Z,53.30
2018-07-23T21:29:12.984Z,53.30
2018-07-23T21:31:41.883Z,53.50
2018-07-23T21:34:10.188Z,52.90
2018-07-23T21:36:39.471Z,53.60
2018-07-23T21:39:09.678Z,53.50
2018-07-23T21:41:39.360Z,53.90
2018-07-23T21:44:09.232Z,54.50
2018-07-23T21:46:37.405Z,54.40
2018-07-23T21:49:05.780Z,54.40
2018-07-23T21:51:34.845Z,54.40
2018-07-23T21:54:03.126Z,54.40
2018-07-23T21:56:31.876Z,54.90
2018-07-23T21:59:00.409Z,55.10
2018-07-23T22:01:28.914Z,55.50
2018-07-23T22:03:57.476Z,55.70
2018-07-23T22:06:25.955Z,55.90
2018-07-23T22:08:55.483Z,55.70
2018-07-23T22:11:23.681Z,55.70
2018-07-23T22:13:51.924Z,55.70
2018-07-23T22:16:20.193Z,56.00
2018-07-23T22:18:48.444Z,56.00
2018-07-23T22:21:16.648Z,56.20
2018-07-23T22:23:44.878Z,56.50
2018-07-23T22:26:13.695Z,56.60
2018-07-23T22:28:42.516Z,56.60
2018-07-23T22:33:39.525Z,56.70
2018-07-23T22:36:07.740Z,56.70
2018-07-23T22:38:36.864Z,57.10
2018-07-23T22:41:05.144Z,56.80
2018-07-23T22:43:35.303Z,57.90
2018-07-23T22:46:04.384Z,58.20
2018-07-23T22:48:33.147Z,58.90
2018-07-23T22:51:01.941Z,58.80
2018-07-23T22:53:30.502Z,58.80
2018-07-23T22:55:58.856Z,59.40
2018-07-23T22:58:27.229Z,59.20
2018-07-23T23:00:55.756Z,59.50
2018-07-23T23:03:23.987Z,59.40
2018-07-23T23:05:52.227Z,60.00
2018-07-23T23:08:20.915Z,59.80
2018-07-23T23:10:50.375Z,59.30
2018-07-23T23:13:19.339Z,60.00
2018-07-23T23:15:47.586Z,60.00
2018-07-23T23:18:15.793Z,60.00
2018-07-23T23:20:44.529Z,60.20
2018-07-23T23:23:12.699Z,60.20
2018-07-23T23:25:40.877Z,60.40
2018-07-23T23:28:09.076Z,60.10
2018-07-23T23:30:37.253Z,60.20
2018-07-23T23:33:05.771Z,60.40
2018-07-23T23:35:34.040Z,60.60
2018-07-23T23:38:02.229Z,61.00
2018-07-23T23:40:30.719Z,61.10
2018-07-23T23:42:58.919Z,61.60
2018-07-23T23:45:27.140Z,61.40
2018-07-23T23:47:55.944Z,60.90
2018-07-23T23:52:52.749Z,61.10
2018-07-23T23:55:21.196Z,61.70
2018-07-23T23:57:49.711Z,62.00
